Latest Weather Observations for Kingaroy

IDQ60901

Issued at 3:35 pm EST Thursday 18 September 2014 (issued every 10 minutes, with the page automatically refreshed every 10 minutes)

About weather observations | Map of Brisbane area stations | Latest observations for Brisbane area | Other Formats
Station Details ID: 040922 Name: KINGAROY AIRPORT Lat: -26.57 Lon: 151.84 Height: 433.67 m
Data from the previous 72 hours. | See also: Recent months at Kingaroy
Date/Time
EST
Tmp

°C
App
Tmp
°C
Dew
Point
°C
Rel
Hum
%
Delta-T

°C
Wind Press
QNH
hPa
Press
MSL
hPa
Rain
since
9 am
mm
Dir
 
Spd
km/h
Gust
km/h
Spd
kts
Gust
kts
18/03:30pm 23.2 18.2 -4.0 16 11.7 SSW 13 24 7 13 1017.0 1015.9 0.0
18/03:00pm 23.9 17.3 -3.4 16 11.9 SSW 22 30 12 16 1017.0 1015.9 0.0
18/02:30pm 23.4 17.1 -3.8 16 11.8 SSW 20 28 11 15 1017.2 1016.2 0.0
18/02:00pm 22.6 16.8 -4.5 16 11.5 WSW 17 28 9 15 1017.4 1016.4 0.0
18/01:30pm 22.6 15.9 -4.5 16 11.5 SSW 22 35 12 19 1017.7 1016.7 0.0
18/01:00pm 22.5 16.1 -1.6 20 10.8 W 22 32 12 17 1018.3 1017.3 0.0
18/12:30pm 23.2 17.4 -0.3 21 10.8 SSW 20 33 11 18 1018.9 1017.8 0.0
18/12:00pm 22.0 15.7 -1.3 21 10.4 SW 22 32 12 17 1019.4 1018.4 0.0
18/11:30am 21.2 14.4 -2.0 21 10.2 SSW 24 37 13 20 1019.9 1018.9 0.0
18/11:00am 21.5 14.6 -2.4 20 10.4 S 24 33 13 18 1020.3 1019.3 0.0
18/10:30am 20.6 13.3 -2.5 21 10.0 S 26 43 14 23 1020.6 1019.6 0.0
18/10:00am 21.3 15.0 -1.3 22 10.0 SSW 22 32 12 17 1020.8 1019.8 0.0
18/09:30am 19.9 12.3 -1.8 23 9.5 S 28 37 15 20 1021.1 1020.2 0.0
18/09:00am 19.2 13.4 -0.2 27 8.6 S 20 24 11 13 1021.3 1020.3 0.0
18/08:30am 18.1 12.9 -0.2 29 8.1 S 17 24 9 13 1021.1 1020.2 0.0
18/08:00am 16.7 11.1 -0.1 32 7.3 S 19 24 10 13 1021.0 1020.1 0.0
18/07:30am 14.1 12.6 3.0 47 5.1 CALM 0 6 0 3 1020.8 1019.8 0.0
18/07:00am 9.7 8.2 3.2 64 2.9 CALM 0 0 0 0 1020.4 1019.4 0.0
18/06:30am 6.3 4.6 1.6 72 1.9 CALM 0 0 0 0 1020.2 1019.2 0.0
18/06:00am 5.9 3.3 1.1 71 1.9 S 4 11 2 6 1019.7 1018.7 0.0
18/05:30am 6.8 5.1 1.9 71 2.0 CALM 0 7 0 4 1019.4 1018.4 0.0
18/05:00am 6.0 4.1 0.6 68 2.2 CALM 0 0 0 0 1019.4 1018.4 0.0
18/04:30am 6.6 4.8 0.9 67 2.3 CALM 0 0 0 0 1018.9 1017.8 0.0
18/04:00am 6.5 4.6 0.4 65 2.4 CALM 0 0 0 0 1018.5 1017.5 0.0
18/03:30am 6.9 5.0 0.4 63 2.6 CALM 0 0 0 0 1018.4 1017.4 0.0
18/03:00am 8.0 6.2 1.4 63 2.8 CALM 0 0 0 0 1018.2 1017.2 0.0
18/02:30am 7.6 5.7 0.8 62 2.8 CALM 0 0 0 0 1018.1 1017.1 0.0
18/02:00am 8.0 4.7 0.3 58 3.1 S 7 7 4 4 1018.0 1017.0 0.0
18/01:30am 8.6 5.5 0.3 56 3.4 E 6 9 3 5 1017.8 1016.8 0.0
18/01:00am 9.1 6.8 0.3 54 3.6 SSE 2 7 1 4 1017.6 1016.6 0.0
18/12:30am 10.6 8.8 0.9 51 4.1 CALM 0 4 0 2 1017.5 1016.5 0.0
18/12:00am 11.0 9.1 0.7 49 4.4 S 0 6 0 3 1017.3 1016.3 0.0
 
Date/Time
EST
Tmp

°C
App
Tmp
°C
Dew
Point
°C
Rel
Hum
%
Delta-T

°C
Wind Press
QNH
hPa
Press
MSL
hPa
Rain
since
9 am
mm
Dir
 
Spd
km/h
Gust
km/h
Spd
kts
Gust
kts
17/11:30pm 11.8 10.0 1.2 48 4.6 CALM 0 6 0 3 1017.2 1016.2 0.0
17/11:00pm 13.3 10.6 0.0 40 5.7 E 4 6 2 3 1017.0 1015.9 0.0
17/10:30pm 13.4 10.1 -1.3 36 6.1 ESE 6 7 3 4 1016.9 1015.8 0.0
17/10:00pm 12.0 7.2 0.5 45 4.9 S 15 19 8 10 1016.5 1015.4 0.0
17/09:30pm 11.9 8.2 -2.7 36 5.8 SSE 7 7 4 4 1016.7 1015.6 0.0
17/09:00pm 12.7 9.0 -2.7 34 6.1 E 7 9 4 5 1016.8 1015.7 0.0
17/08:30pm 14.3 12.0 -2.6 31 6.9 CALM 0 0 0 0 1016.6 1015.5 0.0
17/08:00pm 15.6 11.9 -4.3 25 7.9 WSW 6 9 3 5 1016.4 1015.3 0.0
17/07:30pm 18.0 13.5 -3.4 23 8.9 SW 11 15 6 8 1015.8 1014.8 0.0
17/07:00pm 19.7 14.3 -4.5 19 10.0 SW 15 19 8 10 1015.4 1014.4 0.0
17/06:30pm 20.3 15.8 -3.4 20 10.0 SW 11 15 6 8 1015.1 1014.1 0.0
17/06:00pm 21.3 16.3 -4.0 18 10.7 SW 13 19 7 10 1014.7 1013.6 0.0
17/05:30pm 23.5 17.1 -4.6 15 12.0 WSW 20 32 11 17 1014.3 1013.2 0.0
17/05:00pm 24.4 17.1 -5.8 13 12.7 WSW 24 37 13 20 1014.0 1012.9 0.0
17/04:30pm 25.3 18.0 -6.1 12 13.2 W 24 33 13 18 1013.6 1012.6 0.0
17/04:09pm 25.4 17.3 -7.2 11 13.5 W 28 50 15 27 1013.4 1012.4 0.0
17/04:00pm 25.8 18.2 -5.7 12 13.4 WSW 26 41 14 22 1013.4 1012.4 0.0
17/03:30pm 26.4 18.8 -5.3 12 13.7 W 26 37 14 20 1013.1 1012.1 0.0
17/03:05pm 26.2 17.5 -5.4 12 13.6 WNW 32 50 17 27 1013.4 1012.4 0.0
17/03:00pm 26.5 18.2 -5.2 12 13.7 WNW 30 41 16 22 1013.3 1012.3 0.0
17/02:48pm 26.4 18.2 -4.2 13 13.5 WNW 30 50 16 27 1013.4 1012.4 0.0
17/02:30pm 26.5 19.5 -0.5 17 12.7 W 26 39 14 21 1013.6 1012.6 0.0
17/02:00pm 26.2 18.7 -1.6 16 12.8 W 28 44 15 24 1013.8 1012.8 0.0
17/01:30pm 26.3 20.2 0.1 18 12.5 W 22 37 12 20 1014.2 1013.1 0.0
17/01:00pm 25.8 20.9 1.8 21 11.7 W 17 33 9 18 1014.7 1013.6 0.0
17/12:30pm 25.6 18.1 1.0 20 11.8 NW 30 37 16 20 1014.9 1013.8 0.0
17/12:00pm 24.4 19.4 1.3 22 11.1 WNW 17 30 9 16 1015.5 1014.5 0.0
17/11:30am 25.1 19.6 1.9 22 11.3 W 20 35 11 19 1015.8 1014.8 0.0
17/11:00am 24.9 18.5 1.1 21 11.4 WSW 24 33 13 18 1016.1 1015.1 0.0
17/10:30am 24.4 18.7 0.7 21 11.2 W 20 35 11 19 1016.6 1015.5 0.0
17/10:00am 23.6 19.8 1.9 24 10.5 WSW 11 20 6 11 1016.9 1015.8 0.0
17/09:30am 22.9 20.1 2.9 27 9.8 W 7 15 4 8 1017.1 1016.1 0.0
17/09:00am 20.8 18.9 6.7 40 7.3 W 6 9 3 5 1017.3 1016.3 -
17/08:30am 18.5 18.4 9.3 55 4.9 CALM 0 7 0 4 1017.3 1016.3 -
17/08:00am 15.9 15.7 9.1 64 3.6 CALM 0 0 0 0 1017.3 1016.3 -
17/07:30am 13.0 12.9 9.3 78 1.9 CALM 0 0 0 0 1017.2 1016.2 -
17/07:00am 10.2 9.8 8.1 87 1.0 CALM 0 0 0 0 1017.1 1016.1 -
17/06:30am 7.4 6.4 5.7 89 0.8 CALM 0 0 0 0 1016.9 1015.8 -
17/06:00am 6.4 5.1 4.1 85 1.0 CALM 0 0 0 0 1016.6 1015.5 -
17/05:30am 7.1 5.3 5.4 89 0.8 S 4 7 2 4 1016.2 1015.2 -
17/05:00am 7.4 6.2 4.7 83 1.2 CALM 0 0 0 0 1015.9 1014.9 -
17/04:30am 7.1 4.4 5.4 89 0.8 S 9 9 5 5 1015.7 1014.7 -
17/04:00am 7.8 4.8 5.8 87 0.9 S 11 13 6 7 1015.2 1014.2 -
17/03:30am 8.9 6.7 6.2 83 1.3 S 7 9 4 5 1015.1 1014.1 -
17/03:00am 9.7 8.8 5.9 77 1.8 CALM 0 0 0 0 1015.1 1014.1 0.0
17/02:30am 10.0 9.0 5.8 75 2.0 CALM 0 0 0 0 1015.0 1013.9 -
17/02:00am 10.6 9.0 6.4 75 2.0 E 4 9 2 5 1015.3 1014.3 -
17/01:30am 11.0 10.0 5.7 70 2.5 CALM 0 0 0 0 1015.4 1014.4 -
17/01:00am 12.4 11.6 6.7 68 2.8 CALM 0 0 0 0 1015.4 1014.4 -
17/12:30am 14.2 13.7 7.7 65 3.3 CALM 0 0 0 0 1015.6 1014.6 -
17/12:00am 15.8 14.5 9.2 65 3.5 S 6 9 3 5 1015.6 1014.6 -
 
Date/Time
EST
Tmp

°C
App
Tmp
°C
Dew
Point
°C
Rel
Hum
%
Delta-T

°C
Wind Press
QNH
hPa
Press
MSL
hPa
Rain
since
9 am
mm
Dir
 
Spd
km/h
Gust
km/h
Spd
kts
Gust
kts
16/11:30pm 17.6 14.9 9.0 57 4.6 N 13 17 7 9 1015.7 1014.7 -
16/11:00pm 17.8 15.6 9.2 57 4.6 N 11 15 6 8 1015.8 1014.8 -
16/10:30pm 17.9 15.3 9.3 57 4.6 N 13 15 7 8 1015.7 1014.7 -
16/10:00pm 18.6 17.3 9.1 54 5.1 WNW 6 11 3 6 1015.8 1014.8 -
16/09:30pm 20.2 18.8 9.7 51 5.7 N 7 9 4 5 1015.6 1014.6 -
16/09:00pm 20.8 18.8 8.8 46 6.5 N 9 13 5 7 1015.4 1014.4 0.0
16/08:30pm 18.4 16.3 5.9 44 6.3 ENE 6 9 3 5 1015.0 1013.9 -
16/08:00pm 17.0 15.0 6.2 49 5.4 S 6 9 3 5 1014.5 1013.4 -
16/07:30pm 19.3 18.1 4.6 38 7.2 CALM 0 0 0 0 1014.2 1013.1 -
16/07:00pm 20.6 18.6 4.6 35 8.0 N 4 7 2 4 1014.0 1012.9 -
16/06:30pm 21.5 19.2 5.0 34 8.3 NW 6 7 3 4 1013.6 1012.6 -
16/06:00pm 21.9 18.7 5.3 34 8.4 NNW 11 13 6 7 1013.2 1012.2 -
16/05:30pm 23.9 19.6 5.3 30 9.6 N 17 20 9 11 1012.8 1011.7 -
16/05:00pm 25.0 19.7 5.2 28 10.2 NNW 22 28 12 15 1012.8 1011.7 -
16/04:30pm 26.5 21.7 4.9 25 11.2 NNW 19 26 10 14 1012.6 1011.5 -
16/04:00pm 26.2 20.6 5.2 26 10.9 NNW 24 32 13 17 1012.6 1011.5 -
16/03:30pm 27.4 22.7 6.2 26 11.3 NNW 20 30 11 16 1012.8 1011.7 -
16/02:30pm 27.7 22.1 5.3 24 11.8 NW 24 41 13 22 1013.0 1011.9 0.0
16/02:00pm 26.0 20.3 5.0 26 10.9 NNW 24 33 13 18 1013.5 1012.5 0.0
16/01:30pm 26.5 21.7 5.5 26 11.0 WNW 20 32 11 17 1013.8 1012.8 0.0
16/01:00pm 26.7 22.0 6.2 27 10.9 WNW 20 30 11 16 1014.5 1013.4 0.0
16/12:30pm 27.4 22.1 6.8 27 11.1 NW 24 35 13 19 1015.0 1013.9 0.0
16/12:00pm 26.4 22.0 6.4 28 10.6 NW 19 32 10 17 1015.6 1014.6 0.0
16/11:30am 25.6 21.5 7.7 32 9.7 NNW 19 28 10 15 1016.2 1015.2 0.0
16/11:00am 25.4 20.4 8.0 33 9.5 NNW 24 35 13 19 1016.8 1015.7 0.0
16/10:30am 24.2 19.4 7.4 34 9.0 NNW 22 35 12 19 1017.5 1016.5 0.0
16/10:00am 22.7 17.4 6.9 36 8.3 NNW 24 30 13 16 1018.0 1017.0 0.0
16/09:30am 21.5 18.0 8.7 44 6.9 NW 17 26 9 14 1018.6 1017.6 0.0
16/09:00am 19.9 15.1 7.3 44 6.5 NW 22 30 12 16 1018.9 1017.8 0.0
16/08:30am 18.6 15.3 9.4 55 4.9 NW 17 20 9 11 1019.2 1018.2 0.0
16/08:00am 15.7 14.2 10.5 71 2.8 NW 9 13 5 7 1018.8 1017.7 0.0
16/07:30am 14.0 13.1 10.8 81 1.7 NNW 6 9 3 5 1018.6 1017.6 0.0
16/07:00am 10.1 9.8 8.7 91 0.7 CALM 0 0 0 0 1018.4 1017.4 0.0
16/06:30am 7.4 6.6 6.3 93 0.5 CALM 0 0 0 0 1018.3 1017.3 0.0
16/06:00am 6.7 4.5 5.2 90 0.7 SSW 6 9 3 5 1018.1 1017.1 0.0
16/05:30am 7.4 5.4 6.2 92 0.6 S 6 7 3 4 1017.8 1016.8 0.0
16/05:00am 8.4 7.8 7.2 92 0.6 CALM 0 0 0 0 1017.5 1016.5 0.0
16/04:30am 7.9 7.0 6.0 88 0.9 CALM 0 0 0 0 1017.4 1016.4 0.0
16/04:00am 8.4 7.7 7.0 91 0.7 CALM 0 0 0 0 1017.1 1016.1 0.0
16/03:30am 8.5 7.8 7.0 90 0.7 CALM 0 0 0 0 1017.1 1016.1 0.0
16/03:00am 8.5 7.6 6.0 84 1.2 CALM 0 0 0 0 1017.1 1016.1 0.0
16/02:30am 9.1 7.2 6.9 86 1.1 E 6 7 3 4 1017.0 1015.9 0.0
16/02:00am 9.5 8.9 7.4 87 1.0 CALM 0 0 0 0 1017.2 1016.2 0.0
16/01:30am 9.9 9.0 6.1 77 1.8 CALM 0 0 0 0 1017.3 1016.3 0.0
16/01:00am 10.4 9.7 6.9 79 1.7 CALM 0 0 0 0 1017.4 1016.4 0.0
16/12:30am 11.6 11.1 7.7 77 1.9 CALM 0 0 0 0 1017.5 1016.5 0.0
16/12:00am 13.1 12.8 8.6 74 2.3 CALM 0 2 0 1 1017.6 1016.6 0.0
 
Date/Time
EST
Tmp

°C
App
Tmp
°C
Dew
Point
°C
Rel
Hum
%
Delta-T

°C
Wind Press
QNH
hPa
Press
MSL
hPa
Rain
since
9 am
mm
Dir
 
Spd
km/h
Gust
km/h
Spd
kts
Gust
kts
15/11:30pm 13.2 11.7 8.3 72 2.5 WNW 6 7 3 4 1017.8 1016.8 0.0
15/11:00pm 14.2 12.7 8.4 68 3.0 NE 6 9 3 5 1017.5 1016.5 0.0
15/10:30pm 15.7 14.0 8.4 62 3.8 NE 7 11 4 6 1017.5 1016.5 0.0
15/10:00pm 17.0 15.3 9.7 62 3.9 N 9 15 5 8 1017.5 1016.5 0.0
15/09:30pm 16.9 15.2 9.8 63 3.8 NNE 9 13 5 7 1017.6 1016.6 0.0
15/09:00pm 17.1 15.7 9.5 61 4.1 NE 7 13 4 7 1017.6 1016.6 0.0
15/08:30pm 18.0 16.2 9.6 58 4.5 NNE 9 15 5 8 1017.5 1016.5 0.0
15/08:00pm 18.9 16.6 9.1 53 5.2 NE 11 20 6 11 1017.3 1016.3 0.0
15/07:30pm 17.8 16.0 7.2 50 5.4 ENE 6 9 3 5 1017.0 1015.9 0.0
15/07:00pm 18.9 17.2 7.4 47 6.0 ENE 6 11 3 6 1016.8 1015.7 0.0
15/06:30pm 19.6 17.7 6.7 43 6.6 NE 6 9 3 5 1016.4 1015.3 0.0
15/06:00pm 20.5 18.3 6.1 39 7.4 E 7 9 4 5 1016.1 1015.1 0.0
15/05:30pm 21.8 19.7 6.5 37 7.9 NE 7 9 4 5 1015.8 1014.8 0.0
15/05:00pm 22.7 20.6 6.5 35 8.5 NE 7 11 4 6 1015.7 1014.7 0.0
15/04:30pm 23.3 20.6 5.7 32 9.1 NE 9 13 5 7 1015.5 1014.5 0.0
15/04:00pm 24.1 21.8 5.9 31 9.5 N 7 17 4 9 1015.3 1014.3 0.0

Latest Capital City Observations: Canberra | Sydney | Melbourne | Brisbane | Adelaide | Perth | Hobart | Darwin

Other Formats:

Comma delimited format used in spreadsheet applications
http://www.bom.gov.au/fwo/IDQ60901/IDQ60901.94549.axf

JavaScript Object Notation format (JSON) in row-major order
http://www.bom.gov.au/fwo/IDQ60901/IDQ60901.94549.json